Latest Weather Observations for Hunters Hill

IDV60801

Issued at 5:31 pm EST Wednesday 1 June 2016 (issued every 30 minutes, with the page automatically refreshed every 10 minutes)

About weather observations | Map of weather stations | Latest weather observations for VIC | Other Formats
Station Details ID: 082139 Name: HUNTERS HILL Lat: -36.21 Lon: 147.54 Height: 981.0 m
Data from the previous 72 hours. | See also: Recent months at Hunters Hill
Date/Time
EST
Temp
°C
App
Temp
°C
Dew
Point
Rel
Hum
%
Delta-T
°C
Wind Press
QNH
hPa
Press
MSL
hPa
Rain
since 9 am
mm
Dir
 
Spd
km/h
Gust
km/h
Spd
kts
Gust
kts
01/05:30pm 8.1 6.7 3.6 73 2.1 CALM 0 0 0 0 - - 0.0
01/05:00pm 8.4 7.0 3.3 70 2.3 CALM 0 0 0 0 - - 0.0
01/04:30pm 9.1 7.7 3.3 67 2.7 CALM 0 0 0 0 - - 0.0
01/04:00pm 10.6 9.3 3.9 63 3.1 CALM 0 0 0 0 - - 0.0
01/03:30pm 10.8 9.4 3.8 62 3.3 CALM 0 2 0 1 - - 0.0
01/03:00pm 11.9 10.6 5.8 66 3.0 NW 2 4 1 2 - - 0.0
01/02:30pm 10.9 9.8 5.0 67 2.8 CALM 0 2 0 1 - - 0.0
01/02:00pm 11.0 9.4 4.7 65 3.0 NW 2 4 1 2 - - 0.0
01/01:30pm 11.1 9.8 3.9 61 3.4 CALM 0 2 0 1 - - 0.0
01/01:00pm 12.3 10.8 5.0 61 3.6 NW 2 6 1 3 - - 0.0
01/12:30pm 10.8 9.2 4.3 64 3.1 NW 2 6 1 3 - - 0.0
01/12:00pm 9.6 7.9 3.8 67 2.7 NW 2 4 1 2 - - 0.0
01/11:30am 10.0 8.2 3.7 65 2.9 NW 2 4 1 2 - - 0.0
01/11:00am 10.7 8.7 4.6 66 2.9 NW 4 6 2 3 - - 0.0
01/10:30am 10.7 8.5 3.3 60 3.4 NW 4 7 2 4 - - 0.0
01/10:00am 10.5 8.5 4.4 66 2.9 NW 4 6 2 3 - - 0.0
01/09:30am 8.3 6.3 4.5 77 1.8 NW 4 7 2 4 - - 0.0
01/09:00am 7.0 4.9 3.8 80 1.5 NW 4 4 2 2 - - 0.0
01/08:30am 6.3 4.2 4.0 85 1.0 NW 4 6 2 3 - - 0.0
01/08:00am 5.9 3.8 3.9 87 0.9 NW 4 4 2 2 - - 0.0
01/07:30am 5.6 3.0 3.4 86 1.0 NW 6 6 3 3 - - 0.0
01/07:00am 5.3 3.1 3.5 88 0.8 NW 4 6 2 3 - - 0.0
01/06:30am 5.4 3.2 3.4 87 0.9 NW 4 6 2 3 - - 0.0
01/06:00am 5.4 2.9 3.6 88 0.8 NW 6 6 3 3 - - 0.0
01/05:30am 5.5 3.0 3.5 87 0.9 NW 6 6 3 3 - - 0.0
01/05:00am 5.9 3.4 3.7 86 1.0 NW 6 7 3 4 - - 0.0
01/04:30am 5.8 3.6 3.6 86 1.0 NW 4 6 2 3 - - 0.0
01/04:00am 5.6 3.2 4.1 90 0.7 NW 6 7 3 4 - - 0.0
01/03:30am 5.3 2.8 3.8 90 0.7 NW 6 7 3 4 - - 0.0
01/03:00am 5.3 2.8 4.0 91 0.6 NW 6 7 3 4 - - 0.0
01/02:30am 4.9 3.1 3.4 90 0.7 NW 2 6 1 3 - - 0.0
01/02:00am 5.3 2.8 3.5 88 0.8 NW 6 6 3 3 - - 0.0
01/01:30am 5.6 3.9 3.9 89 0.8 NW 2 4 1 2 - - 0.0
01/01:00am 5.3 3.6 3.8 90 0.7 NW 2 2 1 1 - - 0.0
01/12:30am 5.5 4.1 3.7 88 0.8 CALM 0 2 0 1 - - 0.0
01/12:00am 5.4 4.0 3.7 89 0.8 CALM 0 2 0 1 - - 0.0
 
Date/Time
EST
Temp
°C
App
Temp
°C
Dew
Point
Rel
Hum
%
Delta-T
°C
Wind Press
QNH
hPa
Press
MSL
hPa
Rain
since 9 am
mm
Dir
 
Spd
km/h
Gust
km/h
Spd
kts
Gust
kts
31/11:30pm 5.6 3.9 3.9 89 0.8 NW 2 6 1 3 - - 0.0
31/11:00pm 5.7 3.6 4.0 89 0.8 NW 4 6 2 3 - - 0.0
31/10:30pm 5.4 3.2 3.6 88 0.8 NW 4 6 2 3 - - 0.0
31/10:00pm 5.4 3.5 2.8 83 1.1 NW 2 4 1 2 - - 0.0
31/09:30pm 5.6 3.2 2.4 80 1.4 NW 4 6 2 3 - - 0.0
31/09:00pm 6.0 4.3 1.9 75 1.8 CALM 0 0 0 0 - - 0.0
31/08:30pm 6.0 4.3 1.9 75 1.8 CALM 0 2 0 1 - - 0.0
31/08:00pm 6.3 4.2 1.6 72 2.0 NW 2 4 1 2 - - 0.0
31/07:30pm 6.8 4.7 1.5 69 2.3 NW 2 4 1 2 - - 0.0
31/07:00pm 6.8 4.3 1.5 69 2.3 NW 4 6 2 3 - - 0.0
31/06:30pm 7.6 4.8 2.1 68 2.4 NW 6 6 3 3 - - 0.0
31/06:00pm 7.4 4.9 1.5 66 2.5 NW 4 6 2 3 - - 0.0
31/05:30pm 7.7 4.9 1.8 66 2.6 NW 6 7 3 4 - - 0.0
31/05:00pm 8.0 4.9 0.3 58 3.3 NW 6 6 3 3 - - 0.0
31/04:30pm 9.7 7.0 0.3 52 4.0 NW 4 6 2 3 - - 0.0
31/04:00pm 10.5 7.9 0.8 51 4.2 NW 4 4 2 2 - - 0.0
31/03:30pm 11.4 8.8 1.1 49 4.6 NW 4 6 2 3 - - 0.0
31/03:00pm 11.0 8.8 1.3 51 4.3 NW 2 2 1 1 - - 0.0
31/02:30pm 11.0 8.9 1.5 52 4.2 NW 2 6 1 3 - - 0.0
31/02:00pm 11.8 9.7 1.4 49 4.7 NW 2 4 1 2 - - 0.0
31/01:30pm 11.4 9.6 3.2 57 3.8 NW 2 4 1 2 - - 0.0
31/01:00pm 10.3 8.2 1.9 56 3.8 NW 2 4 1 2 - - 0.0
31/12:30pm 10.5 8.4 1.9 55 3.9 NW 2 4 1 2 - - 0.0
31/12:00pm 9.7 7.1 1.1 55 3.8 NW 4 6 2 3 - - 0.0
31/11:30am 9.3 6.8 1.7 59 3.4 NW 4 6 2 3 - - 0.0
31/11:00am 8.9 6.5 2.3 63 2.9 NW 4 4 2 2 - - 0.0
31/10:30am 7.8 5.2 1.0 62 2.9 NW 4 6 2 3 - - 0.0
31/10:00am 8.0 5.9 1.8 65 2.7 NW 2 6 1 3 - - 0.0
31/09:30am 6.7 4.2 1.4 69 2.3 NW 4 7 2 4 - - 0.0
31/09:00am 5.0 2.4 0.9 75 1.7 NW 4 6 2 3 - - 0.0
31/08:30am 4.7 2.5 1.2 78 1.5 NW 2 6 1 3 - - 0.0
31/08:00am 4.2 1.2 0.9 79 1.4 NW 6 7 3 4 - - 0.0
31/07:30am 3.7 1.1 0.9 82 1.1 NW 4 6 2 3 - - 0.0
31/07:00am 3.6 0.6 0.7 81 1.2 NW 6 7 3 4 - - 0.0
31/06:30am 3.9 0.9 0.9 81 1.2 NW 6 7 3 4 - - 0.0
31/06:00am 3.3 0.7 1.0 85 0.9 NW 4 6 2 3 - - 0.0
31/05:30am 3.8 0.9 1.2 83 1.1 NW 6 7 3 4 - - 0.0
31/05:00am 3.9 1.0 1.4 84 1.0 NW 6 6 3 3 - - 0.0
31/04:30am 4.0 1.1 1.5 84 1.0 NW 6 6 3 3 - - 0.0
31/04:00am 4.0 1.1 1.5 84 1.0 NW 6 7 3 4 - - 0.0
31/03:30am 4.0 1.1 1.7 85 1.0 NW 6 6 3 3 - - 0.0
31/03:00am 3.9 1.1 2.3 89 0.7 NW 6 7 3 4 - - 0.0
31/02:30am 4.2 1.5 2.4 88 0.8 NW 6 7 3 4 - - 0.0
31/02:00am 4.3 1.6 2.8 90 0.6 NW 6 7 3 4 - - 0.0
31/01:30am 3.9 1.3 3.2 95 0.3 NW 6 7 3 4 - - 0.0
31/01:00am 3.6 1.4 3.2 97 0.2 NW 4 6 2 3 - - 0.0
31/12:30am 3.7 1.1 3.0 95 0.3 NW 6 6 3 3 - - 0.0
31/12:00am 4.1 1.9 3.2 94 0.4 NW 4 6 2 3 - - 0.0
 
Date/Time
EST
Temp
°C
App
Temp
°C
Dew
Point
Rel
Hum
%
Delta-T
°C
Wind Press
QNH
hPa
Press
MSL
hPa
Rain
since 9 am
mm
Dir
 
Spd
km/h
Gust
km/h
Spd
kts
Gust
kts
30/11:30pm 4.3 2.1 3.3 93 0.4 NW 4 6 2 3 - - 0.0
30/11:00pm 4.5 2.3 3.5 93 0.4 NW 4 6 2 3 - - 0.0
30/10:30pm 4.5 2.2 2.5 87 0.9 NW 4 6 2 3 - - 0.0
30/10:00pm 4.6 2.3 2.6 87 0.9 NW 4 6 2 3 - - 0.0
30/09:30pm 4.1 1.5 3.2 94 0.4 NW 6 7 3 4 - - 0.0
30/09:00pm 4.3 1.8 3.9 97 0.2 NW 6 7 3 4 - - 0.0
30/08:30pm 4.0 1.5 3.9 99 0.0 NW 6 7 3 4 - - 0.0
30/08:00pm 3.9 1.8 3.8 99 0.0 NW 4 6 2 3 - - 0.0
30/07:30pm 4.3 3.0 4.2 99 0.0 CALM 0 0 0 0 - - 0.0
30/07:00pm 4.9 3.7 4.8 99 0.0 CALM 0 0 0 0 - - 0.0
30/06:30pm 5.2 4.0 4.5 95 0.3 CALM 0 0 0 0 - - 0.0
30/06:00pm 5.3 4.1 4.6 95 0.3 CALM 0 0 0 0 - - 0.0
30/05:30pm 5.5 3.4 3.7 88 0.8 NW 4 6 2 3 - - 0.0
30/05:00pm 6.0 3.9 3.8 86 1.0 NW 4 6 2 3 - - 0.0
30/04:30pm 7.7 5.9 3.2 73 2.0 NW 2 6 1 3 - - 0.0
30/04:00pm 8.5 6.5 2.5 66 2.7 NW 2 6 1 3 - - 0.0
30/03:30pm 8.8 6.9 2.8 66 2.7 NW 2 4 1 2 - - 0.0
30/03:00pm 9.3 7.7 2.2 61 3.2 CALM 0 2 0 1 - - 0.0
30/02:30pm 9.4 7.5 2.7 63 3.0 NW 2 4 1 2 - - 0.0
30/02:00pm 8.7 6.5 1.1 59 3.3 NW 2 6 1 3 - - 0.0
30/01:30pm 8.9 6.7 1.1 58 3.4 NW 2 6 1 3 - - 0.0
30/01:00pm 8.7 6.2 1.6 61 3.1 NW 4 6 2 3 - - 0.0
30/12:30pm 8.2 5.9 0.7 59 3.2 NW 2 6 1 3 - - 0.0
30/12:00pm 8.2 6.2 2.2 66 2.7 NW 2 4 1 2 - - 0.0
30/11:30am 7.6 5.4 0.8 62 2.9 NW 2 6 1 3 - - 0.0
30/11:00am 7.2 5.4 3.3 76 1.8 NW 2 4 1 2 - - 0.0
30/10:30am 6.7 5.4 4.2 84 1.1 CALM 0 0 0 0 - - 0.0
30/10:00am 4.6 3.1 2.8 88 0.8 CALM 0 0 0 0 - - 0.0
30/09:30am 3.8 2.4 3.8 100 0.0 CALM 0 0 0 0 - - 0.0
30/09:00am 2.2 0.6 2.2 100 0.0 CALM 0 0 0 0 - - 0.0
30/08:30am 2.1 0.4 2.1 100 0.0 CALM 0 2 0 1 - - 0.0
30/08:00am 1.6 -0.1 1.6 100 0.0 CALM 0 0 0 0 - - 0.0
30/07:30am 1.5 -0.6 1.5 100 0.0 NW 2 4 1 2 - - 0.0
30/07:00am 1.7 0.0 1.7 100 0.0 CALM 0 0 0 0 - - 0.0
30/06:30am 1.6 -0.5 1.6 100 0.0 NW 2 4 1 2 - - 0.0
30/06:00am 1.6 -0.1 1.6 100 0.0 CALM 0 0 0 0 - - 0.0
30/05:30am 1.8 0.1 1.7 99 0.0 CALM 0 4 0 2 - - 0.0
30/05:00am 1.7 -0.4 1.6 99 0.0 NW 2 2 1 1 - - 0.0
30/04:30am 1.8 0.1 1.7 99 0.0 CALM 0 0 0 0 - - 0.0
30/04:00am 1.8 -0.4 1.2 96 0.2 NW 2 4 1 2 - - 0.0
30/03:30am 1.9 -0.4 0.7 92 0.5 NW 2 4 1 2 - - 0.0
30/03:00am 2.1 -0.1 0.8 91 0.5 NW 2 4 1 2 - - 0.0
30/02:30am 2.0 -0.3 0.7 91 0.5 NW 2 6 1 3 - - 0.0
30/02:00am 2.1 -0.2 0.3 88 0.7 NW 2 4 1 2 - - 0.0
30/01:30am 2.6 0.4 1.0 89 0.7 NW 2 6 1 3 - - 0.0
30/01:00am 3.3 1.3 2.4 94 0.4 NW 2 2 1 1 - - 0.0
30/12:30am 3.4 1.2 3.3 99 0.0 NW 4 6 2 3 - - 0.0
30/12:00am 3.4 1.6 3.3 99 0.0 NW 2 4 1 2 - - 0.0
 
Date/Time
EST
Temp
°C
App
Temp
°C
Dew
Point
Rel
Hum
%
Delta-T
°C
Wind Press
QNH
hPa
Press
MSL
hPa
Rain
since 9 am
mm
Dir
 
Spd
km/h
Gust
km/h
Spd
kts
Gust
kts
29/11:30pm 3.0 0.7 2.9 99 0.0 NW 4 6 2 3 - - 0.0
29/11:00pm 3.0 0.7 2.9 99 0.0 NW 4 6 2 3 - - 0.0
29/10:30pm 3.0 0.7 2.9 99 0.0 NW 4 6 2 3 - - 0.0
29/10:00pm 2.8 0.5 2.7 99 0.0 NW 4 6 2 3 - - 0.0
29/09:30pm 3.2 1.3 3.1 99 0.0 NW 2 6 1 3 - - 0.0
29/09:00pm 3.1 0.8 3.0 99 0.0 NW 4 7 2 4 - - 0.0
29/08:30pm 3.5 1.7 3.4 99 0.0 NW 2 6 1 3 - - 0.0
29/08:00pm 3.1 0.9 3.1 100 0.0 NW 4 7 2 4 - - 0.0
29/07:30pm 2.8 0.1 2.8 100 0.0 NW 6 9 3 5 - - 0.0
29/07:00pm 3.0 0.4 3.0 100 0.0 NW 6 9 3 5 - - 0.0
29/06:30pm 2.9 0.2 2.9 100 0.0 NW 6 7 3 4 - - 0.0
29/06:00pm 2.9 0.6 2.9 100 0.0 NW 4 6 2 3 - - 0.0

Other Formats:

Comma delimited format used in spreadsheet applications
http://www.bom.gov.au/fwo/IDV60801/IDV60801.94878.axf

JavaScript Object Notation format (JSON) in row-major order
http://www.bom.gov.au/fwo/IDV60801/IDV60801.94878.json